Etusivu
METAR-TAF:

METAR-TAF

Lentoasemat :

San Angelo Regional Airport (Mathis Field)

San Angelo, Texas, Yhdysvallat

Leveyspiiri: 31-21-05N, Pituuspiiri: 100-29-38W, korkeus merenpinnasta: 584 m

Tämänhetkinen sää

Tämä raportti tehtiin 25 minuuttia sitten, kello 12.51 UTC
Tuuli 10 kn etelästä puuskistuen 18 kn:hen
Lämpötila 26°C
Kosteus 74%
Ilmanpaine 1016 hPa
Näkyvyys: 16.1 km
selkeää

METAR: KSJT 181251Z 18010G18KT 10SM CLR 26/21 A3001 RMK AO2 SLP134 T02560206

Aika: 08:16 (13:16 UTC)

Sääennuste

Tämä raportti tehtiin 1 tunti ja 52 minuuttia sitten, kello 11.24 UTC
Ennuste voimassa 18. päivästä klo 12 UTC - 19. päivään klo 12 UTC
Tuuli 10 kn etelästä
Näkyvyys: 10 km
selkeää
From 18. päivästä klo 1500 UTC
Tuuli 16 kn etelästä puuskistuen 23 kn:hen
Näkyvyys: 10 km
selkeää
From 19. päivästä klo 0200 UTC
Tuuli 10 kn etelästä/kaakosta
Näkyvyys: 10 km
selkeää

TAF: KSJT 181124Z 1812/1912 18010KT P6SM SKC FM181500 18016G23KT P6SM SKC FM190200 16010KT P6SM SKC

Säähavainnot ja -ennusteet yli 4000 lentoasemalta (METAR- ja TAF-raportit).

Käytössä olevat sääasemat on merkitty karttaan keltaisilla ja punaisilla pisteillä.

Aseta hiiri pisteen päälle nähdäksesi sääaseman nimen.

Klikkaa sitten nähdäksesi säähavainnot ja -ennusteet.

Kartan vaihtaminen: klikkaa mustalla rastilla varustettuja vihreitä pisteitä, niin voit zoomata sisään; viivalla varustettua vihreää pistettä, niin voit zoomata ulos tai vihreitä nuolia, niin pääset viereisille kartoille.


METAR-TAF: